createdAt,value
2023-02-23T00:02:27.554Z,62.30
2023-02-23T00:04:54.223Z,62.60
2023-02-23T00:07:20.843Z,63.49
2023-02-23T00:09:47.453Z,64.71
2023-02-23T00:12:14.066Z,63.01
2023-02-23T00:14:51.688Z,63.75
2023-02-23T00:17:18.350Z,63.39
2023-02-23T00:19:47.828Z,63.56
2023-02-23T00:22:14.467Z,63.57
2023-02-23T00:24:43.352Z,63.10
2023-02-23T00:27:10.528Z,63.77
2023-02-23T00:29:37.150Z,63.51
2023-02-23T00:32:04.353Z,63.19
2023-02-23T00:34:31.044Z,63.05
2023-02-23T00:36:57.650Z,62.64
2023-02-23T00:39:24.426Z,62.62
2023-02-23T00:41:52.562Z,63.07
2023-02-23T00:44:21.121Z,62.77
2023-02-23T00:46:47.992Z,62.80
2023-02-23T00:49:14.689Z,62.14
2023-02-23T00:51:41.860Z,62.33
2023-02-23T00:54:12.012Z,62.61
2023-02-23T00:56:40.083Z,62.30
2023-02-23T00:59:07.869Z,62.49
2023-02-23T01:01:36.413Z,64.35
2023-02-23T01:04:03.610Z,64.37
2023-02-23T01:06:30.409Z,64.51
2023-02-23T01:08:57.082Z,63.59
2023-02-23T01:11:28.467Z,63.82
2023-02-23T01:13:58.219Z,64.37
2023-02-23T01:16:29.218Z,63.65
2023-02-23T01:18:59.184Z,63.69
2023-02-23T01:21:29.800Z,63.87
2023-02-23T01:23:57.151Z,63.27
2023-02-23T01:26:32.906Z,63.09
2023-02-23T01:29:02.416Z,63.67
2023-02-23T01:31:30.252Z,63.50
2023-02-23T01:33:59.902Z,63.88
2023-02-23T01:36:28.367Z,65.19
2023-02-23T01:38:55.977Z,65.44
2023-02-23T01:41:24.219Z,64.79
2023-02-23T01:44:07.819Z,64.47
2023-02-23T01:46:40.356Z,64.88
2023-02-23T01:49:25.154Z,64.65
2023-02-23T01:52:13.369Z,64.86
2023-02-23T01:54:50.203Z,63.37
2023-02-23T01:57:20.223Z,64.26
2023-02-23T01:59:49.963Z,63.73
2023-02-23T02:02:20.793Z,64.35
2023-02-23T02:04:48.136Z,64.38
2023-02-23T02:07:29.786Z,64.08
2023-02-23T02:09:58.982Z,63.79
2023-02-23T02:12:25.669Z,63.56
2023-02-23T02:14:53.403Z,64.05
2023-02-23T02:17:38.971Z,65.11
2023-02-23T02:20:42.086Z,64.87
2023-02-23T02:23:23.763Z,64.79
2023-02-23T02:26:08.898Z,63.53
2023-02-23T02:29:00.273Z,64.46
2023-02-23T02:31:35.798Z,64.40
2023-02-23T02:34:14.264Z,65.00
2023-02-23T02:37:28.774Z,65.79
2023-02-23T02:40:22.086Z,65.95
2023-02-23T02:43:06.321Z,65.11
2023-02-23T02:46:08.095Z,65.18
2023-02-23T02:48:57.661Z,64.72
2023-02-23T02:51:31.400Z,63.75
2023-02-23T02:54:19.257Z,63.45
2023-02-23T02:56:48.808Z,63.56
2023-02-23T02:59:19.641Z,63.41
2023-02-23T03:01:46.337Z,63.11
2023-02-23T03:04:25.325Z,62.03
2023-02-23T03:06:51.913Z,62.50
2023-02-23T03:09:33.517Z,63.70
2023-02-23T03:12:25.142Z,65.23
2023-02-23T03:14:58.978Z,63.79
2023-02-23T03:18:11.168Z,63.81
2023-02-23T03:20:54.338Z,63.61
2023-02-23T03:23:49.033Z,63.66
2023-02-23T03:26:19.653Z,63.85
2023-02-23T03:29:11.553Z,64.82
2023-02-23T03:31:58.395Z,64.06
2023-02-23T03:34:24.965Z,64.12
2023-02-23T03:37:03.808Z,63.70
2023-02-23T03:39:43.467Z,63.42
2023-02-23T03:42:17.782Z,63.97
2023-02-23T03:44:48.801Z,66.08
2023-02-23T03:47:21.388Z,64.79
2023-02-23T03:49:50.949Z,63.77
2023-02-23T03:52:26.791Z,63.67
2023-02-23T03:55:04.795Z,63.03
2023-02-23T03:57:37.449Z,63.86
2023-02-23T04:00:11.864Z,63.52
2023-02-23T04:02:42.919Z,64.16
2023-02-23T04:05:16.767Z,66.39
2023-02-23T04:07:49.203Z,65.40
2023-02-23T04:10:16.234Z,63.95
2023-02-23T04:12:58.048Z,64.24
2023-02-23T04:15:34.018Z,63.86
2023-02-23T04:18:01.016Z,64.15
2023-02-23T04:20:27.907Z,64.85
2023-02-23T04:22:54.630Z,64.20
2023-02-23T04:25:21.367Z,64.29
2023-02-23T04:27:48.509Z,63.98
2023-02-23T04:30:15.341Z,64.08
2023-02-23T04:32:42.238Z,64.43
2023-02-23T04:35:10.132Z,64.28
2023-02-23T04:37:37.904Z,64.07
2023-02-23T04:40:06.300Z,63.73
2023-02-23T04:42:32.980Z,63.77
2023-02-23T04:44:59.685Z,63.59
2023-02-23T04:47:26.492Z,63.49
2023-02-23T04:49:53.401Z,63.56
2023-02-23T04:52:20.075Z,63.79
2023-02-23T04:54:46.706Z,63.03
2023-02-23T04:57:13.334Z,63.87
2023-02-23T04:59:40.331Z,64.86
2023-02-23T05:02:07.342Z,63.84
2023-02-23T05:04:34.247Z,63.99
2023-02-23T05:07:01.568Z,64.09
2023-02-23T05:09:28.171Z,64.58
2023-02-23T05:11:54.866Z,64.72
2023-02-23T05:14:22.529Z,64.31
2023-02-23T05:16:49.188Z,64.98
2023-02-23T05:19:16.010Z,64.16
2023-02-23T05:21:42.636Z,63.75
2023-02-23T05:24:09.274Z,63.56
2023-02-23T05:26:35.980Z,63.89
2023-02-23T05:29:03.508Z,64.38
2023-02-23T05:31:30.227Z,64.43
2023-02-23T05:33:56.972Z,63.93
2023-02-23T05:36:23.621Z,63.63
2023-02-23T05:38:50.262Z,64.23
2023-02-23T05:41:20.673Z,64.83
2023-02-23T05:43:50.550Z,65.44
2023-02-23T05:46:21.547Z,67.21
2023-02-23T05:48:48.434Z,66.32
2023-02-23T05:51:17.125Z,64.86
2023-02-23T05:53:45.010Z,64.63
2023-02-23T05:56:17.625Z,65.76
2023-02-23T05:58:44.468Z,67.10
2023-02-23T06:01:11.207Z,65.13
2023-02-23T06:03:38.050Z,66.83
2023-02-23T06:06:05.192Z,66.72
2023-02-23T06:08:31.945Z,65.55
2023-02-23T06:10:58.730Z,65.09
2023-02-23T06:13:25.560Z,64.50
2023-02-23T06:15:52.550Z,64.41
2023-02-23T06:18:19.271Z,63.70
2023-02-23T06:20:46.201Z,63.67
2023-02-23T06:23:13.217Z,64.69
2023-02-23T06:25:39.867Z,64.70
2023-02-23T06:28:06.516Z,64.30
2023-02-23T06:30:33.155Z,64.06
2023-02-23T06:32:59.916Z,63.24
2023-02-23T06:35:26.634Z,63.98
2023-02-23T06:37:53.527Z,63.68
2023-02-23T06:40:21.324Z,62.94
2023-02-23T06:42:50.492Z,63.22
2023-02-23T06:45:18.038Z,63.54
2023-02-23T06:47:45.446Z,63.34
2023-02-23T06:50:12.221Z,62.78
2023-02-23T06:52:38.892Z,62.30
2023-02-23T06:55:06.478Z,61.88
2023-02-23T06:57:33.103Z,61.20
2023-02-23T06:59:59.876Z,62.13
2023-02-23T07:02:26.477Z,62.64
2023-02-23T07:04:53.157Z,62.41
2023-02-23T07:07:19.792Z,62.33
2023-02-23T07:09:46.415Z,64.96
2023-02-23T07:12:13.026Z,63.03
2023-02-23T07:14:39.922Z,62.13
2023-02-23T07:17:06.597Z,61.75
2023-02-23T07:19:33.234Z,61.75
2023-02-23T07:21:59.891Z,61.80
2023-02-23T07:24:26.519Z,61.13
2023-02-23T07:26:53.158Z,61.31
2023-02-23T07:29:19.803Z,60.60
2023-02-23T07:31:46.669Z,60.76
2023-02-23T07:34:13.451Z,60.75
2023-02-23T07:36:40.159Z,60.58
2023-02-23T07:39:07.079Z,60.00
2023-02-23T07:41:33.784Z,59.73
2023-02-23T07:44:00.714Z,60.10
2023-02-23T07:46:27.405Z,61.08
2023-02-23T07:48:54.153Z,63.60
2023-02-23T07:51:21.279Z,62.63
2023-02-23T07:53:48.051Z,61.00
2023-02-23T07:56:14.853Z,61.15
2023-02-23T07:58:43.376Z,61.26
2023-02-23T08:01:11.788Z,61.51
2023-02-23T08:03:38.884Z,60.68
2023-02-23T08:06:06.565Z,59.91
2023-02-23T08:08:33.250Z,59.73
2023-02-23T08:11:04.897Z,59.87
2023-02-23T08:13:32.377Z,59.47
2023-02-23T08:15:59.661Z,58.81
2023-02-23T08:18:26.554Z,58.77
2023-02-23T08:21:04.232Z,57.61
2023-02-23T08:23:33.036Z,57.71
2023-02-23T08:26:01.160Z,57.54
2023-02-23T08:28:29.446Z,56.89
2023-02-23T08:30:56.269Z,57.20
2023-02-23T08:33:22.968Z,57.13
2023-02-23T08:35:51.320Z,57.18
2023-02-23T08:38:19.117Z,56.56
2023-02-23T08:40:46.586Z,57.20
2023-02-23T08:43:13.249Z,58.41
2023-02-23T08:45:40.004Z,58.38
2023-02-23T08:48:08.000Z,58.45
2023-02-23T08:50:35.235Z,59.14
2023-02-23T08:53:01.929Z,59.55
2023-02-23T08:55:28.605Z,58.77
2023-02-23T08:57:55.265Z,58.36
2023-02-23T09:00:22.391Z,58.84
2023-02-23T09:02:49.052Z,58.97
2023-02-23T09:05:17.770Z,59.41
2023-02-23T09:07:45.401Z,58.27
2023-02-23T09:10:14.757Z,59.85
2023-02-23T09:12:41.455Z,59.51
2023-02-23T09:15:09.172Z,62.25
2023-02-23T09:17:36.485Z,61.09
2023-02-23T09:20:04.588Z,59.94
2023-02-23T09:22:31.982Z,60.48
2023-02-23T09:24:58.646Z,60.21
2023-02-23T09:27:25.366Z,59.54
2023-02-23T09:29:54.161Z,58.65
2023-02-23T09:32:21.023Z,58.03
2023-02-23T09:34:47.760Z,58.52
2023-02-23T09:37:14.601Z,58.88
2023-02-23T09:39:41.265Z,58.61
2023-02-23T09:42:24.082Z,59.13
2023-02-23T09:45:16.542Z,61.16
2023-02-23T09:48:23.394Z,61.21
2023-02-23T09:50:56.302Z,61.31
2023-02-23T09:53:22.881Z,60.57
2023-02-23T09:55:53.542Z,60.44
2023-02-23T09:58:26.622Z,63.51
2023-02-23T10:01:11.329Z,62.94
2023-02-23T10:03:54.209Z,64.61
2023-02-23T10:06:22.034Z,63.74
2023-02-23T10:08:55.945Z,62.98
2023-02-23T10:11:38.435Z,61.62
2023-02-23T10:14:45.409Z,61.02
2023-02-23T10:17:22.118Z,60.12
2023-02-23T10:20:26.781Z,59.86
2023-02-23T10:22:57.982Z,58.32
2023-02-23T10:25:28.665Z,57.63
2023-02-23T10:27:58.535Z,57.89
2023-02-23T10:30:28.464Z,60.84
2023-02-23T10:33:13.572Z,59.98
2023-02-23T10:35:40.263Z,59.01
2023-02-23T10:38:18.436Z,59.00
2023-02-23T10:40:50.820Z,58.61
2023-02-23T10:43:17.482Z,57.28
2023-02-23T10:45:47.711Z,58.14
2023-02-23T10:48:19.363Z,59.08
2023-02-23T10:50:48.577Z,57.64
2023-02-23T10:53:28.129Z,58.07
2023-02-23T10:56:15.189Z,56.57
2023-02-23T10:58:51.911Z,54.62
2023-02-23T11:01:49.152Z,56.10
2023-02-23T11:04:32.417Z,55.70
2023-02-23T11:07:16.654Z,56.17
2023-02-23T11:09:47.481Z,56.08
2023-02-23T11:12:20.304Z,57.13
2023-02-23T11:14:50.937Z,55.63
2023-02-23T11:17:29.620Z,55.29
2023-02-23T11:20:02.553Z,57.32
2023-02-23T11:22:36.182Z,56.01
2023-02-23T11:25:15.685Z,57.94
2023-02-23T11:27:48.150Z,57.20
2023-02-23T11:30:16.375Z,57.60
2023-02-23T11:32:44.363Z,58.19
2023-02-23T11:35:13.511Z,56.35
2023-02-23T11:37:40.241Z,56.61
2023-02-23T11:40:21.258Z,56.26
2023-02-23T11:43:14.535Z,56.77
2023-02-23T11:45:51.970Z,57.07
2023-02-23T11:48:28.538Z,56.00
2023-02-23T11:50:57.120Z,55.57
2023-02-23T11:53:39.291Z,55.17
2023-02-23T11:56:07.516Z,55.49
2023-02-23T11:58:47.417Z,53.96
2023-02-23T12:01:17.493Z,55.75
2023-02-23T12:03:57.030Z,57.35
2023-02-23T12:06:39.778Z,55.30
2023-02-23T12:09:27.819Z,55.55
2023-02-23T12:12:06.994Z,55.88
2023-02-23T12:14:42.563Z,55.97
2023-02-23T12:17:19.828Z,55.66
2023-02-23T12:19:59.447Z,55.93
2023-02-23T12:22:37.988Z,57.44
2023-02-23T12:25:13.643Z,57.35
2023-02-23T12:28:07.640Z,58.20
2023-02-23T12:30:51.304Z,57.45
2023-02-23T12:33:39.302Z,56.48
2023-02-23T12:36:26.570Z,56.15
2023-02-23T12:39:00.695Z,56.47
2023-02-23T12:41:38.828Z,56.56
2023-02-23T12:44:30.080Z,56.84
2023-02-23T12:47:09.025Z,57.78
2023-02-23T12:49:39.220Z,57.29
2023-02-23T12:52:19.541Z,59.10
2023-02-23T12:54:46.560Z,58.89
2023-02-23T12:57:40.967Z,59.48
2023-02-23T13:00:36.876Z,58.45
2023-02-23T13:03:25.105Z,57.51
2023-02-23T13:06:02.625Z,57.98
2023-02-23T13:08:32.058Z,56.47
2023-02-23T13:11:16.905Z,56.93
2023-02-23T13:14:16.044Z,55.60
2023-02-23T13:16:50.929Z,57.72
2023-02-23T13:19:34.049Z,57.81
2023-02-23T13:22:24.361Z,58.64
2023-02-23T13:24:57.837Z,59.64
2023-02-23T13:27:50.317Z,58.42
2023-02-23T13:30:17.630Z,58.04
2023-02-23T13:32:46.843Z,57.59
2023-02-23T13:35:25.246Z,57.32
2023-02-23T13:37:59.274Z,58.59
2023-02-23T13:40:35.961Z,58.86
2023-02-23T13:43:20.562Z,57.65
2023-02-23T13:46:05.788Z,57.75
2023-02-23T13:48:56.710Z,57.80
2023-02-23T13:51:39.363Z,57.69
2023-02-23T13:54:16.637Z,56.36
2023-02-23T13:56:58.867Z,56.97
2023-02-23T13:59:37.351Z,56.84
2023-02-23T14:02:22.667Z,57.46
2023-02-23T14:04:50.671Z,57.92
2023-02-23T14:07:30.794Z,59.08
2023-02-23T14:10:06.039Z,58.38
2023-02-23T14:12:40.336Z,57.28
2023-02-23T14:15:25.629Z,57.05
2023-02-23T14:17:57.384Z,57.76
2023-02-23T14:20:54.248Z,56.48
2023-02-23T14:23:21.777Z,57.89
2023-02-23T14:25:48.416Z,56.34
2023-02-23T14:28:46.706Z,55.05
2023-02-23T14:31:13.450Z,53.96
2023-02-23T14:33:43.228Z,54.75
2023-02-23T14:36:22.218Z,53.15
2023-02-23T14:39:01.996Z,53.64
2023-02-23T14:41:59.198Z,52.92
2023-02-23T14:44:38.745Z,52.57
2023-02-23T14:47:42.401Z,51.41
2023-02-23T14:50:19.789Z,53.52
2023-02-23T14:52:47.748Z,54.47
2023-02-23T14:55:29.240Z,54.24
2023-02-23T14:57:57.384Z,53.40
2023-02-23T15:00:28.108Z,52.48
2023-02-23T15:03:10.298Z,52.67
2023-02-23T15:05:45.126Z,54.13
2023-02-23T15:08:20.900Z,54.01
2023-02-23T15:10:51.478Z,53.31
2023-02-23T15:13:31.202Z,53.03
2023-02-23T15:16:04.417Z,53.41
2023-02-23T15:18:38.270Z,52.29
2023-02-23T15:21:12.504Z,52.79
2023-02-23T15:23:40.009Z,52.06
2023-02-23T15:26:29.800Z,51.94
2023-02-23T15:29:22.823Z,51.66
2023-02-23T15:31:55.486Z,50.91
2023-02-23T15:34:25.820Z,52.24
2023-02-23T15:36:56.731Z,52.31
2023-02-23T15:39:48.700Z,52.09
2023-02-23T15:42:24.521Z,53.03
2023-02-23T15:45:05.568Z,51.82
2023-02-23T15:47:37.879Z,52.20
2023-02-23T15:50:18.096Z,52.62
2023-02-23T15:52:52.305Z,51.22
2023-02-23T15:55:25.693Z,50.95
2023-02-23T15:58:00.705Z,51.82
2023-02-23T16:00:39.206Z,52.67
2023-02-23T16:03:08.846Z,52.12
2023-02-23T16:05:41.915Z,52.47
2023-02-23T16:08:24.163Z,52.55
2023-02-23T16:11:00.932Z,52.41
2023-02-23T16:13:28.013Z,54.49
2023-02-23T16:15:56.395Z,53.34
2023-02-23T16:18:35.787Z,52.17
2023-02-23T16:21:04.759Z,52.96
2023-02-23T16:23:34.444Z,52.34
2023-02-23T16:26:12.407Z,54.25
2023-02-23T16:28:44.836Z,57.10
2023-02-23T16:31:13.089Z,58.65
2023-02-23T16:33:51.014Z,57.37
2023-02-23T16:36:24.068Z,57.13
2023-02-23T16:39:00.151Z,57.37
2023-02-23T16:41:33.867Z,59.42
2023-02-23T16:44:05.129Z,58.48
2023-02-23T16:46:53.702Z,58.87
2023-02-23T16:49:20.981Z,56.95
2023-02-23T16:51:47.791Z,57.31
2023-02-23T16:54:14.743Z,57.92
2023-02-23T16:56:41.818Z,57.25
2023-02-23T16:59:16.194Z,57.12
2023-02-23T17:01:43.493Z,56.48
2023-02-23T17:04:15.628Z,56.38
2023-02-23T17:06:43.439Z,56.56
2023-02-23T17:09:11.962Z,56.88
2023-02-23T17:11:41.197Z,58.31
2023-02-23T17:14:07.916Z,57.73
2023-02-23T17:16:34.664Z,58.00
2023-02-23T17:19:01.285Z,57.66
2023-02-23T17:21:27.951Z,57.22
2023-02-23T17:23:54.609Z,57.81
2023-02-23T17:26:23.962Z,57.55
2023-02-23T17:28:51.687Z,57.47
2023-02-23T17:31:20.946Z,57.41
2023-02-23T17:33:49.202Z,58.25
2023-02-23T17:36:17.761Z,58.41
2023-02-23T17:38:44.629Z,58.78
2023-02-23T17:41:19.466Z,59.09
2023-02-23T17:43:46.306Z,59.49
2023-02-23T17:46:13.847Z,59.48
2023-02-23T17:48:40.547Z,59.45
2023-02-23T17:51:09.779Z,59.03
2023-02-23T17:53:36.831Z,58.50
2023-02-23T17:56:04.108Z,60.43
2023-02-23T17:58:31.229Z,59.85
2023-02-23T18:01:01.273Z,58.79
2023-02-23T18:03:30.855Z,57.79
2023-02-23T18:06:09.616Z,57.71
2023-02-23T18:08:37.779Z,58.57
2023-02-23T18:11:04.468Z,58.73
2023-02-23T18:13:31.856Z,57.89
2023-02-23T18:16:03.053Z,58.78
2023-02-23T18:18:30.061Z,60.47
2023-02-23T18:20:59.653Z,60.91
2023-02-23T18:23:28.213Z,59.94
2023-02-23T18:25:55.004Z,60.15
2023-02-23T18:28:21.634Z,60.01
2023-02-23T18:30:48.280Z,60.22
2023-02-23T18:33:15.092Z,58.92
2023-02-23T18:35:43.985Z,60.06
2023-02-23T18:38:12.723Z,58.98
2023-02-23T18:40:39.854Z,59.79
2023-02-23T18:43:07.105Z,60.88
2023-02-23T18:45:34.583Z,59.21
2023-02-23T18:48:01.237Z,59.66
2023-02-23T18:50:28.218Z,61.82
2023-02-23T18:52:56.526Z,62.17
2023-02-23T18:55:23.906Z,62.43
2023-02-23T18:57:51.308Z,61.28
2023-02-23T19:00:19.503Z,60.65
2023-02-23T19:02:46.302Z,62.45
2023-02-23T19:05:15.928Z,62.03
2023-02-23T19:07:43.438Z,62.42
2023-02-23T19:10:13.145Z,62.96
2023-02-23T19:12:39.862Z,61.66
2023-02-23T19:15:07.810Z,60.51
2023-02-23T19:17:36.036Z,59.32
2023-02-23T19:20:04.050Z,59.12
2023-02-23T19:22:30.699Z,58.44
2023-02-23T19:24:57.376Z,58.47
2023-02-23T19:27:24.007Z,57.80
2023-02-23T19:29:50.673Z,57.70
2023-02-23T19:32:17.434Z,58.64
2023-02-23T19:34:44.675Z,58.67
2023-02-23T19:37:11.301Z,57.60
2023-02-23T19:39:38.243Z,59.97
2023-02-23T19:42:04.953Z,60.57
2023-02-23T19:44:31.587Z,61.98
2023-02-23T19:46:58.424Z,64.17
2023-02-23T19:49:25.348Z,63.81
2023-02-23T19:51:52.557Z,61.92
2023-02-23T19:54:19.979Z,63.41
2023-02-23T19:56:47.122Z,64.19
2023-02-23T19:59:15.418Z,64.69
2023-02-23T20:01:42.132Z,65.63
2023-02-23T20:04:09.025Z,65.17
2023-02-23T20:06:41.986Z,64.73
2023-02-23T20:09:08.761Z,64.99
2023-02-23T20:11:35.878Z,64.73
2023-02-23T20:14:04.155Z,64.23
2023-02-23T20:16:31.694Z,64.03
2023-02-23T20:18:58.687Z,64.57
2023-02-23T20:21:27.781Z,63.80
2023-02-23T20:23:55.873Z,63.81
2023-02-23T20:26:29.158Z,63.20
2023-02-23T20:28:57.817Z,62.89
2023-02-23T20:31:28.279Z,63.34
2023-02-23T20:33:57.579Z,64.00
2023-02-23T20:36:25.566Z,64.22
2023-02-23T20:38:53.248Z,63.66
2023-02-23T20:41:22.838Z,63.32
2023-02-23T20:43:49.773Z,63.28
2023-02-23T20:46:16.965Z,62.96
2023-02-23T20:48:43.927Z,62.53
2023-02-23T20:51:12.397Z,62.30
2023-02-23T20:53:40.264Z,62.09
2023-02-23T20:56:09.958Z,61.09
2023-02-23T20:58:38.969Z,59.69
2023-02-23T21:01:13.505Z,57.79
2023-02-23T21:03:40.215Z,56.34
2023-02-23T21:06:06.955Z,55.34
2023-02-23T21:08:33.547Z,55.73
2023-02-23T21:11:06.353Z,55.16
2023-02-23T21:13:33.552Z,55.11
2023-02-23T21:16:00.245Z,55.45
2023-02-23T21:18:28.111Z,55.70
2023-02-23T21:20:55.524Z,55.46
2023-02-23T21:23:26.374Z,55.49
2023-02-23T21:25:52.955Z,56.20
2023-02-23T21:28:20.433Z,55.62
2023-02-23T21:30:47.318Z,56.71
2023-02-23T21:33:14.561Z,56.88
2023-02-23T21:35:43.239Z,57.75
2023-02-23T21:38:09.829Z,58.44
2023-02-23T21:40:36.474Z,58.13
2023-02-23T21:43:03.093Z,58.37
2023-02-23T21:45:29.709Z,58.11
2023-02-23T21:47:56.362Z,58.36
2023-02-23T21:50:23.029Z,57.42
2023-02-23T21:52:49.661Z,56.66
2023-02-23T21:55:24.446Z,57.20
2023-02-23T21:57:51.878Z,57.30
2023-02-23T22:00:21.736Z,56.97
2023-02-23T22:02:51.451Z,57.92
2023-02-23T22:05:19.096Z,57.14
2023-02-23T22:07:51.199Z,57.03
2023-02-23T22:10:23.090Z,59.13
2023-02-23T22:12:50.774Z,58.56
2023-02-23T22:15:17.519Z,58.86
2023-02-23T22:17:44.187Z,58.91
2023-02-23T22:20:11.704Z,60.13
2023-02-23T22:22:38.406Z,61.90
2023-02-23T22:25:07.394Z,59.42
2023-02-23T22:27:34.057Z,61.14
2023-02-23T22:30:02.147Z,61.53
2023-02-23T22:32:30.734Z,62.68
2023-02-23T22:34:57.569Z,61.64
2023-02-23T22:37:24.183Z,60.59
2023-02-23T22:39:50.779Z,59.84
2023-02-23T22:42:17.394Z,61.06
2023-02-23T22:44:44.042Z,59.56
2023-02-23T22:47:10.763Z,59.70
2023-02-23T22:49:37.386Z,59.33
2023-02-23T22:52:04.056Z,59.33
2023-02-23T22:54:30.682Z,59.89
2023-02-23T22:56:57.318Z,60.10
2023-02-23T22:59:23.969Z,60.09
2023-02-23T23:01:50.706Z,60.22
2023-02-23T23:04:17.511Z,62.44
2023-02-23T23:06:44.179Z,64.60
2023-02-23T23:09:12.262Z,63.37
2023-02-23T23:11:39.577Z,62.67
2023-02-23T23:14:06.222Z,63.14
2023-02-23T23:16:35.247Z,63.43
2023-02-23T23:19:06.145Z,65.66
2023-02-23T23:21:34.550Z,65.09
2023-02-23T23:24:03.723Z,67.63
2023-02-23T23:26:30.378Z,66.94
2023-02-23T23:28:59.535Z,68.74
2023-02-23T23:31:32.336Z,67.97
2023-02-23T23:34:01.877Z,68.02
2023-02-23T23:36:40.890Z,69.65
2023-02-23T23:39:07.501Z,70.32
2023-02-23T23:41:34.146Z,70.12
2023-02-23T23:44:01.841Z,70.15
2023-02-23T23:46:31.721Z,69.92
2023-02-23T23:49:00.737Z,68.80
2023-02-23T23:51:32.969Z,65.73
2023-02-23T23:54:01.756Z,65.63
2023-02-23T23:56:29.454Z,63.71
2023-02-23T23:58:59.118Z,63.12
